Robertsdale, Indiana
Current Conditions -  °F | °C
As of 5:45 AM on Thursday 29 Jan 2015 (Local Time) from KGYY Reporting Station
Broken Clouds Broken Clouds  
Wind Chill: 32°   Ceiling: 8000
Heat Index: 37°   Visibility: 10mi
Dew Point: 25°   Wind: 7mph
Humidity: 60%   Direction: 150°SSE
Pressure: 29.7"   Gusts: NA
Location:  41.6768°N, 87.5007°W
Report Text: KGYY 291145Z 15006KT 10SM BKN080 03/M04 A2970
Loading
Personal Weather Stations






























Interactive Weather Map New forecast layout! Learn more

10-Day Weather Forecast

Advertisements
Track Severe Weather on mobile